Kenansville, Florida
Current Conditions -  °F | °C
As of 8:53 PM on Monday 24 Nov 2014 (Local Time) from KMLB Reporting Station
Scattered Clouds Scattered Clouds  
Wind Chill: 77°   Ceiling: Unl
Heat Index: 79°   Visibility: 10mi
Dew Point: 71°   Wind: 5mph
Humidity: 82%   Direction: 170°S
Pressure: 30"   Gusts: NA
Location:  27.88°N, 80.99°W
Report Text: KMLB 250153Z 17004KT 10SM SCT055 25/22 A3000 RMK AO2 SLP158 T02500217
Loading
Personal Weather Stations






























Interactive Weather Map New forecast layout! Learn more

10-Day Weather Forecast

Advertisements
Track Severe Weather on mobile